Flight Track Log - Related Links

Times and Time Zones

All times are in EDT time to prevent confusion due to time zone crossing. See the SKQ221 flight status page for this flight to view local times or setup timezone preferences in your user account.

Time Position Orientation Groundspeed Altitude Reporting Facility
EDT Latitude Longitude Course Direction KTS MPH feet Rate Location/Type
Wed 07:05:23 PM 39.9947 -82.8822 360° North 120 138 1,100  Level Indianapolis Center
Wed 07:06:47 PM 40.0450 -82.8817 360° North 139 160 3,000 1,351 Climbing Indianapolis Center
Wed 07:07:54 PM 40.0825 -82.8814 329° Northwest 130 150 4,500 1,328 Climbing Indianapolis Center
Wed 07:08:49 PM 40.1097 -82.9028 302° West 122 140 5,700 776 Climbing Indianapolis Center
Wed 07:09:50 PM 40.1306 -82.9461 307° West 158 182 6,000 148 Climbing Indianapolis Center
Wed 07:10:51 PM 40.1622 -83.0003 307° West 183 211 6,000  Level Indianapolis Center
Wed 07:11:51 PM 40.1917 -83.0517 303° West 177 204 6,000  Level Indianapolis Center
Wed 07:12:52 PM 40.2189 -83.1058 307° West 175 201 6,000  Level Indianapolis Center
Wed 07:13:53 PM 40.2483 -83.1572 307° West 175 201 6,000 -117 Level Indianapolis Center
Wed 07:14:35 PM 40.2672 -83.1897 303° West 186 214 5,800 -118 Descending Indianapolis Center
Wed 07:15:35 PM 40.2944 -83.2442 306° West 186 214 5,800  Level Indianapolis Center
Wed 07:16:35 PM 40.3217 -83.2931 305° West 186 214 5,800  Level Indianapolis Center
Wed 07:17:35 PM 40.3489 -83.3447 305° West 181 208 5,800  Level Indianapolis Center
Wed 07:18:35 PM 40.3781 -83.3989 305° West 181 208 5,800 50 Level Indianapolis Center
Wed 07:19:35 PM 40.4053 -83.4508 305° West 176 203 5,900 50 Climbing Indianapolis Center
Wed 07:20:35 PM 40.4325 -83.5025 306° West 176 203 5,900  Level Indianapolis Center
Wed 07:21:35 PM 40.4617 -83.5544 303° West 176 203 5,900  Level Indianapolis Center
Wed 07:22:35 PM 40.4886 -83.6089 304° West 176 203 5,900 50 Level Indianapolis Center
Wed 07:23:35 PM 40.5156 -83.6608 306° West 176 203 6,000 50 Climbing Indianapolis Center
Wed 07:24:35 PM 40.5428 -83.7100 304° West 176 203 6,000  Level Indianapolis Center
Wed 07:25:35 PM 40.5697 -83.7619 304° West 176 203 6,000 -50 Level Indianapolis Center
Wed 07:26:35 PM 40.5967 -83.8139 304° West 176 203 5,900 -50 Descending Indianapolis Center
Wed 07:27:35 PM 40.6258 -83.8714 306° West 176 203 5,900  Level Indianapolis Center
Wed 07:28:35 PM 40.6547 -83.9236 305° West 176 203 5,900 50 Level Indianapolis Center
Wed 07:29:35 PM 40.6839 -83.9786 305° West 176 203 6,000 50 Climbing Indianapolis Center
Wed 07:30:35 PM 40.7128 -84.0333 304° West 176 203 6,000  Level Indianapolis Center
Wed 07:31:35 PM 40.7397 -84.0856 304° West 176 203 6,000 -42 Level Indianapolis Center
Wed 08:21:05 PM 42.1500 -86.9333 289° West 196 226 3,900 -42 Descending Chicago TRACON
Wed 08:21:59 PM 42.1667 -87.0000 270° West 193 222 3,900  Level Chicago TRACON
Wed 08:22:59 PM 42.1667 -87.0667 270° West 189 217 3,900  Level Chicago TRACON
Wed 08:23:59 PM 42.1667 -87.1333 270° West 193 222 3,900  Level Chicago TRACON
Wed 08:24:59 PM 42.1667 -87.2000 285° West 195 224 3,900  Level Chicago TRACON
Wed 08:25:59 PM 42.1833 -87.2833 270° West 192 221 3,900  Level Chicago TRACON
Wed 08:26:59 PM 42.1833 -87.3500 289° West 187 215 3,900  Level Chicago TRACON
Wed 08:27:59 PM 42.2000 -87.4167 270° West 185 213 3,900  Level Chicago TRACON
Wed 08:28:59 PM 42.2000 -87.4833 289° West 181 208 3,900  Level Chicago TRACON
Wed 08:29:59 PM 42.2167 -87.5500 294° West 178 205 3,900 -50 Level Chicago TRACON
Wed 08:30:59 PM 42.2333 -87.6000 270° West 178 205 3,800 -313 Descending Chicago TRACON
Wed 08:31:54 PM 42.2333 -87.6667 270° West 188 216 3,300 -417 Descending Chicago TRACON
Wed 08:32:54 PM 42.2333 -87.7333 270° West 181 208 3,000 -400 Descending Chicago TRACON
Wed 08:33:54 PM 42.2333 -87.8000 217° Southwest 180 207 2,500 -524 Descending Chicago TRACON
Wed 08:35:00 PM 42.1833 -87.8500 246° West 175 201 1,900 -250 Descending Chicago TRACON
Wed 08:35:54 PM 42.1667 -87.9000 200° South 143 165 2,000 -316 Climbing Chicago TRACON
Wed 08:36:54 PM 42.1333 -87.9167 200° South 114 131 1,300 -700 Descending Chicago TRACON

Login

Don't have an account? Register now (free) for customized features, flight alerts, and more!